sensor_id;sensor_type;location;lat;lon;timestamp;P1;durP1;ratioP1;P2;durP2;ratioP2
46318;SDS011;32042;50.916;2.926;2024-03-17T00:00:21;12.07;;;8.73;;
46318;SDS011;32042;50.916;2.926;2024-03-17T00:02:47;9.63;;;8.63;;
46318;SDS011;32042;50.916;2.926;2024-03-17T00:05:13;8.97;;;7.97;;
46318;SDS011;32042;50.916;2.926;2024-03-17T00:07:40;11.57;;;8.00;;
46318;SDS011;32042;50.916;2.926;2024-03-17T00:10:07;9.47;;;8.23;;
46318;SDS011;32042;50.916;2.926;2024-03-17T00:12:34;9.00;;;8.10;;
46318;SDS011;32042;50.916;2.926;2024-03-17T00:15:00;10.03;;;7.40;;
46318;SDS011;32042;50.916;2.926;2024-03-17T00:17:26;14.00;;;8.50;;
46318;SDS011;32042;50.916;2.926;2024-03-17T00:19:52;13.03;;;8.70;;
46318;SDS011;32042;50.916;2.926;2024-03-17T00:22:18;11.67;;;8.40;;
46318;SDS011;32042;50.916;2.926;2024-03-17T00:24:45;8.27;;;7.40;;
46318;SDS011;32042;50.916;2.926;2024-03-17T00:27:11;10.30;;;8.20;;
46318;SDS011;32042;50.916;2.926;2024-03-17T00:29:38;11.17;;;8.43;;
46318;SDS011;32042;50.916;2.926;2024-03-17T00:32:04;10.80;;;7.60;;
46318;SDS011;32042;50.916;2.926;2024-03-17T00:34:31;8.60;;;7.73;;
46318;SDS011;32042;50.916;2.926;2024-03-17T00:36:57;9.80;;;7.07;;
46318;SDS011;32042;50.916;2.926;2024-03-17T00:39:24;11.00;;;7.70;;
46318;SDS011;32042;50.916;2.926;2024-03-17T00:41:50;7.73;;;7.03;;
46318;SDS011;32042;50.916;2.926;2024-03-17T00:44:16;8.93;;;7.10;;
46318;SDS011;32042;50.916;2.926;2024-03-17T00:46:43;9.77;;;8.10;;
46318;SDS011;32042;50.916;2.926;2024-03-17T00:49:09;8.40;;;7.60;;
46318;SDS011;32042;50.916;2.926;2024-03-17T00:51:35;8.40;;;7.60;;
46318;SDS011;32042;50.916;2.926;2024-03-17T00:54:02;8.90;;;8.00;;
46318;SDS011;32042;50.916;2.926;2024-03-17T00:56:28;8.80;;;7.43;;
46318;SDS011;32042;50.916;2.926;2024-03-17T00:58:54;9.17;;;7.20;;
46318;SDS011;32042;50.916;2.926;2024-03-17T01:01:20;8.10;;;7.23;;
46318;SDS011;32042;50.916;2.926;2024-03-17T01:03:46;10.33;;;8.20;;
46318;SDS011;32042;50.916;2.926;2024-03-17T01:06:13;10.20;;;7.67;;
46318;SDS011;32042;50.916;2.926;2024-03-17T01:08:39;9.30;;;8.20;;
46318;SDS011;32042;50.916;2.926;2024-03-17T01:11:05;9.87;;;7.87;;
46318;SDS011;32042;50.916;2.926;2024-03-17T01:13:34;11.17;;;7.77;;
46318;SDS011;32042;50.916;2.926;2024-03-17T01:16:02;8.67;;;7.63;;
46318;SDS011;32042;50.916;2.926;2024-03-17T01:18:29;9.70;;;8.67;;
46318;SDS011;32042;50.916;2.926;2024-03-17T01:20:55;8.43;;;7.63;;
46318;SDS011;32042;50.916;2.926;2024-03-17T01:23:21;10.47;;;8.13;;
46318;SDS011;32042;50.916;2.926;2024-03-17T01:25:47;8.40;;;7.60;;
46318;SDS011;32042;50.916;2.926;2024-03-17T01:28:13;8.73;;;7.83;;
46318;SDS011;32042;50.916;2.926;2024-03-17T01:30:39;11.33;;;7.90;;
46318;SDS011;32042;50.916;2.926;2024-03-17T01:33:06;8.80;;;7.90;;
46318;SDS011;32042;50.916;2.926;2024-03-17T01:35:32;8.57;;;7.80;;
46318;SDS011;32042;50.916;2.926;2024-03-17T01:37:58;8.60;;;7.90;;
46318;SDS011;32042;50.916;2.926;2024-03-17T01:40:25;10.10;;;8.50;;
46318;SDS011;32042;50.916;2.926;2024-03-17T01:42:51;9.53;;;7.80;;
46318;SDS011;32042;50.916;2.926;2024-03-17T01:47:43;9.07;;;8.10;;
46318;SDS011;32042;50.916;2.926;2024-03-17T01:50:09;10.00;;;8.00;;
46318;SDS011;32042;50.916;2.926;2024-03-17T01:52:38;9.90;;;8.93;;
46318;SDS011;32042;50.916;2.926;2024-03-17T01:55:04;9.50;;;8.50;;
46318;SDS011;32042;50.916;2.926;2024-03-17T01:57:30;9.60;;;8.23;;
46318;SDS011;32042;50.916;2.926;2024-03-17T01:59:57;10.57;;;8.47;;
46318;SDS011;32042;50.916;2.926;2024-03-17T02:02:23;11.37;;;8.20;;
46318;SDS011;32042;50.916;2.926;2024-03-17T02:04:49;9.80;;;8.03;;
46318;SDS011;32042;50.916;2.926;2024-03-17T02:07:16;10.03;;;8.20;;
46318;SDS011;32042;50.916;2.926;2024-03-17T02:09:43;9.03;;;8.20;;
46318;SDS011;32042;50.916;2.926;2024-03-17T02:12:09;8.93;;;8.03;;
46318;SDS011;32042;50.916;2.926;2024-03-17T02:14:37;9.00;;;8.10;;
46318;SDS011;32042;50.916;2.926;2024-03-17T02:17:03;8.53;;;7.73;;
46318;SDS011;32042;50.916;2.926;2024-03-17T02:19:29;8.70;;;7.83;;
46318;SDS011;32042;50.916;2.926;2024-03-17T02:21:55;8.97;;;8.07;;
46318;SDS011;32042;50.916;2.926;2024-03-17T02:24:21;8.77;;;7.87;;
46318;SDS011;32042;50.916;2.926;2024-03-17T02:26:47;8.70;;;7.87;;
46318;SDS011;32042;50.916;2.926;2024-03-17T02:29:13;10.57;;;8.53;;
46318;SDS011;32042;50.916;2.926;2024-03-17T02:31:39;8.57;;;7.77;;
46318;SDS011;32042;50.916;2.926;2024-03-17T02:34:05;9.73;;;7.77;;
46318;SDS011;32042;50.916;2.926;2024-03-17T02:36:32;11.63;;;8.07;;
46318;SDS011;32042;50.916;2.926;2024-03-17T02:38:58;11.00;;;8.37;;
46318;SDS011;32042;50.916;2.926;2024-03-17T02:41:43;8.83;;;7.80;;
46318;SDS011;32042;50.916;2.926;2024-03-17T02:44:09;9.10;;;7.73;;
46318;SDS011;32042;50.916;2.926;2024-03-17T02:46:36;10.60;;;8.23;;
46318;SDS011;32042;50.916;2.926;2024-03-17T02:49:03;8.53;;;7.73;;
46318;SDS011;32042;50.916;2.926;2024-03-17T02:51:30;7.77;;;7.03;;
46318;SDS011;32042;50.916;2.926;2024-03-17T02:53:56;9.87;;;7.70;;
46318;SDS011;32042;50.916;2.926;2024-03-17T02:56:24;8.67;;;7.87;;
46318;SDS011;32042;50.916;2.926;2024-03-17T02:58:50;11.77;;;8.23;;
46318;SDS011;32042;50.916;2.926;2024-03-17T03:01:17;9.00;;;8.10;;
46318;SDS011;32042;50.916;2.926;2024-03-17T03:03:44;9.50;;;7.53;;
46318;SDS011;32042;50.916;2.926;2024-03-17T03:06:11;8.47;;;7.67;;
46318;SDS011;32042;50.916;2.926;2024-03-17T03:08:41;10.93;;;8.60;;
46318;SDS011;32042;50.916;2.926;2024-03-17T03:11:09;9.80;;;8.17;;
46318;SDS011;32042;50.916;2.926;2024-03-17T03:13:40;8.73;;;7.83;;
46318;SDS011;32042;50.916;2.926;2024-03-17T03:16:07;8.73;;;7.23;;
46318;SDS011;32042;50.916;2.926;2024-03-17T03:18:34;11.80;;;7.63;;
46318;SDS011;32042;50.916;2.926;2024-03-17T03:21:00;8.67;;;7.77;;
46318;SDS011;32042;50.916;2.926;2024-03-17T03:23:26;8.23;;;7.30;;
46318;SDS011;32042;50.916;2.926;2024-03-17T03:25:55;8.97;;;8.00;;
46318;SDS011;32042;50.916;2.926;2024-03-17T03:28:25;9.97;;;7.10;;
46318;SDS011;32042;50.916;2.926;2024-03-17T03:30:51;8.07;;;7.30;;
46318;SDS011;32042;50.916;2.926;2024-03-17T03:33:18;8.50;;;7.60;;
46318;SDS011;32042;50.916;2.926;2024-03-17T03:35:44;9.10;;;7.77;;
46318;SDS011;32042;50.916;2.926;2024-03-17T03:38:11;12.00;;;8.63;;
46318;SDS011;32042;50.916;2.926;2024-03-17T03:40:38;9.07;;;8.17;;
46318;SDS011;32042;50.916;2.926;2024-03-17T03:43:04;10.00;;;7.73;;
46318;SDS011;32042;50.916;2.926;2024-03-17T03:45:30;9.37;;;7.33;;
46318;SDS011;32042;50.916;2.926;2024-03-17T03:47:56;8.70;;;7.87;;
46318;SDS011;32042;50.916;2.926;2024-03-17T03:50:22;8.87;;;7.97;;
46318;SDS011;32042;50.916;2.926;2024-03-17T03:52:48;8.33;;;7.53;;
46318;SDS011;32042;50.916;2.926;2024-03-17T03:55:15;8.73;;;7.83;;
46318;SDS011;32042;50.916;2.926;2024-03-17T03:57:42;8.83;;;7.77;;
46318;SDS011;32042;50.916;2.926;2024-03-17T04:00:11;12.20;;;8.07;;
46318;SDS011;32042;50.916;2.926;2024-03-17T04:02:43;8.43;;;7.63;;
46318;SDS011;32042;50.916;2.926;2024-03-17T04:05:09;10.67;;;8.37;;
46318;SDS011;32042;50.916;2.926;2024-03-17T04:07:36;8.47;;;7.13;;
46318;SDS011;32042;50.916;2.926;2024-03-17T04:10:04;9.53;;;7.70;;
46318;SDS011;32042;50.916;2.926;2024-03-17T04:12:31;8.90;;;6.93;;
46318;SDS011;32042;50.916;2.926;2024-03-17T04:14:58;8.20;;;7.27;;
46318;SDS011;32042;50.916;2.926;2024-03-17T04:17:24;8.60;;;7.07;;
46318;SDS011;32042;50.916;2.926;2024-03-17T04:19:50;9.00;;;7.43;;
46318;SDS011;32042;50.916;2.926;2024-03-17T04:22:16;7.87;;;6.97;;
46318;SDS011;32042;50.916;2.926;2024-03-17T04:24:43;8.07;;;7.33;;
46318;SDS011;32042;50.916;2.926;2024-03-17T04:27:09;8.57;;;7.43;;
46318;SDS011;32042;50.916;2.926;2024-03-17T04:29:35;7.73;;;6.93;;
46318;SDS011;32042;50.916;2.926;2024-03-17T04:32:01;8.30;;;7.17;;
46318;SDS011;32042;50.916;2.926;2024-03-17T04:34:29;7.60;;;6.77;;
46318;SDS011;32042;50.916;2.926;2024-03-17T04:36:56;9.03;;;6.90;;
46318;SDS011;32042;50.916;2.926;2024-03-17T04:39:22;7.60;;;6.57;;
46318;SDS011;32042;50.916;2.926;2024-03-17T04:41:48;8.80;;;7.43;;
46318;SDS011;32042;50.916;2.926;2024-03-17T04:44:15;8.13;;;6.60;;
46318;SDS011;32042;50.916;2.926;2024-03-17T04:46:41;11.63;;;7.20;;
46318;SDS011;32042;50.916;2.926;2024-03-17T04:49:07;8.03;;;6.73;;
46318;SDS011;32042;50.916;2.926;2024-03-17T04:51:33;8.40;;;6.60;;
46318;SDS011;32042;50.916;2.926;2024-03-17T04:54:00;8.97;;;6.70;;
46318;SDS011;32042;50.916;2.926;2024-03-17T04:56:29;10.27;;;6.60;;
46318;SDS011;32042;50.916;2.926;2024-03-17T04:58:55;8.07;;;6.97;;
46318;SDS011;32042;50.916;2.926;2024-03-17T05:01:21;8.77;;;7.53;;
46318;SDS011;32042;50.916;2.926;2024-03-17T05:03:47;7.10;;;6.40;;
46318;SDS011;32042;50.916;2.926;2024-03-17T05:06:13;9.07;;;6.83;;
46318;SDS011;32042;50.916;2.926;2024-03-17T05:08:39;11.33;;;7.93;;
46318;SDS011;32042;50.916;2.926;2024-03-17T05:11:05;7.70;;;6.43;;
46318;SDS011;32042;50.916;2.926;2024-03-17T05:13:35;12.03;;;7.37;;
46318;SDS011;32042;50.916;2.926;2024-03-17T05:16:04;7.77;;;6.80;;
46318;SDS011;32042;50.916;2.926;2024-03-17T05:18:31;10.20;;;6.70;;
46318;SDS011;32042;50.916;2.926;2024-03-17T05:21:01;8.27;;;6.53;;
46318;SDS011;32042;50.916;2.926;2024-03-17T05:23:28;8.13;;;6.80;;
46318;SDS011;32042;50.916;2.926;2024-03-17T05:25:55;7.20;;;6.00;;
46318;SDS011;32042;50.916;2.926;2024-03-17T05:28:22;7.77;;;6.70;;
46318;SDS011;32042;50.916;2.926;2024-03-17T05:30:48;7.23;;;5.97;;
46318;SDS011;32042;50.916;2.926;2024-03-17T05:33:16;9.60;;;6.87;;
46318;SDS011;32042;50.916;2.926;2024-03-17T05:35:52;10.73;;;7.00;;
46318;SDS011;32042;50.916;2.926;2024-03-17T05:38:22;7.47;;;6.70;;
46318;SDS011;32042;50.916;2.926;2024-03-17T05:40:55;8.07;;;7.13;;
46318;SDS011;32042;50.916;2.926;2024-03-17T05:43:22;7.63;;;6.83;;
46318;SDS011;32042;50.916;2.926;2024-03-17T05:45:55;7.53;;;6.73;;
46318;SDS011;32042;50.916;2.926;2024-03-17T05:48:22;8.13;;;6.50;;
46318;SDS011;32042;50.916;2.926;2024-03-17T05:50:49;9.70;;;7.13;;
46318;SDS011;32042;50.916;2.926;2024-03-17T05:53:19;8.97;;;6.43;;
46318;SDS011;32042;50.916;2.926;2024-03-17T05:55:45;9.10;;;6.73;;
46318;SDS011;32042;50.916;2.926;2024-03-17T05:58:11;8.17;;;6.67;;
46318;SDS011;32042;50.916;2.926;2024-03-17T06:00:40;8.37;;;6.67;;
46318;SDS011;32042;50.916;2.926;2024-03-17T06:03:06;10.50;;;7.33;;
46318;SDS011;32042;50.916;2.926;2024-03-17T06:05:33;7.73;;;6.67;;
46318;SDS011;32042;50.916;2.926;2024-03-17T06:08:00;8.63;;;6.60;;
46318;SDS011;32042;50.916;2.926;2024-03-17T06:10:27;8.97;;;7.10;;
46318;SDS011;32042;50.916;2.926;2024-03-17T06:12:53;7.17;;;6.47;;
46318;SDS011;32042;50.916;2.926;2024-03-17T06:15:19;9.83;;;6.10;;
46318;SDS011;32042;50.916;2.926;2024-03-17T06:17:46;9.47;;;7.40;;
46318;SDS011;32042;50.916;2.926;2024-03-17T06:20:12;8.80;;;6.70;;
46318;SDS011;32042;50.916;2.926;2024-03-17T06:22:38;7.23;;;6.43;;
46318;SDS011;32042;50.916;2.926;2024-03-17T06:25:04;9.93;;;6.67;;
46318;SDS011;32042;50.916;2.926;2024-03-17T06:27:31;10.33;;;6.90;;
46318;SDS011;32042;50.916;2.926;2024-03-17T06:29:59;8.23;;;6.57;;
46318;SDS011;32042;50.916;2.926;2024-03-17T06:32:29;8.33;;;6.77;;
46318;SDS011;32042;50.916;2.926;2024-03-17T06:34:56;7.53;;;6.47;;
46318;SDS011;32042;50.916;2.926;2024-03-17T06:37:23;8.67;;;6.23;;
46318;SDS011;32042;50.916;2.926;2024-03-17T06:39:49;7.90;;;6.07;;
46318;SDS011;32042;50.916;2.926;2024-03-17T06:42:15;8.27;;;6.43;;
46318;SDS011;32042;50.916;2.926;2024-03-17T06:44:41;6.30;;;5.57;;
46318;SDS011;32042;50.916;2.926;2024-03-17T06:47:07;7.90;;;6.87;;
46318;SDS011;32042;50.916;2.926;2024-03-17T06:49:33;7.07;;;6.20;;
46318;SDS011;32042;50.916;2.926;2024-03-17T06:51:59;7.53;;;6.57;;
46318;SDS011;32042;50.916;2.926;2024-03-17T06:54:26;10.53;;;6.97;;
46318;SDS011;32042;50.916;2.926;2024-03-17T06:56:52;9.67;;;6.57;;
46318;SDS011;32042;50.916;2.926;2024-03-17T06:59:18;7.43;;;6.73;;
46318;SDS011;32042;50.916;2.926;2024-03-17T07:01:46;8.60;;;6.63;;
46318;SDS011;32042;50.916;2.926;2024-03-17T07:04:12;7.80;;;7.00;;
46318;SDS011;32042;50.916;2.926;2024-03-17T07:06:39;10.53;;;6.13;;
46318;SDS011;32042;50.916;2.926;2024-03-17T07:09:05;11.00;;;7.20;;
46318;SDS011;32042;50.916;2.926;2024-03-17T07:11:31;8.73;;;7.00;;
46318;SDS011;32042;50.916;2.926;2024-03-17T07:13:58;6.97;;;6.27;;
46318;SDS011;32042;50.916;2.926;2024-03-17T07:16:24;6.90;;;6.23;;
46318;SDS011;32042;50.916;2.926;2024-03-17T07:18:51;10.57;;;7.60;;
46318;SDS011;32042;50.916;2.926;2024-03-17T07:21:21;7.87;;;6.60;;
46318;SDS011;32042;50.916;2.926;2024-03-17T07:23:47;7.57;;;6.47;;
46318;SDS011;32042;50.916;2.926;2024-03-17T07:26:13;10.97;;;6.77;;
46318;SDS011;32042;50.916;2.926;2024-03-17T07:28:39;7.47;;;6.67;;
46318;SDS011;32042;50.916;2.926;2024-03-17T07:31:06;11.57;;;6.40;;
46318;SDS011;32042;50.916;2.926;2024-03-17T07:33:34;9.57;;;6.57;;
46318;SDS011;32042;50.916;2.926;2024-03-17T07:36:00;10.50;;;7.40;;
46318;SDS011;32042;50.916;2.926;2024-03-17T07:38:27;10.67;;;6.33;;
46318;SDS011;32042;50.916;2.926;2024-03-17T07:40:58;9.97;;;8.23;;
46318;SDS011;32042;50.916;2.926;2024-03-17T07:43:24;15.87;;;11.63;;
46318;SDS011;32042;50.916;2.926;2024-03-17T07:46:00;9.03;;;6.30;;
46318;SDS011;32042;50.916;2.926;2024-03-17T07:48:27;16.97;;;10.67;;
46318;SDS011;32042;50.916;2.926;2024-03-17T07:50:57;8.77;;;7.87;;
46318;SDS011;32042;50.916;2.926;2024-03-17T07:53:23;7.43;;;6.73;;
46318;SDS011;32042;50.916;2.926;2024-03-17T07:55:56;14.60;;;8.33;;
46318;SDS011;32042;50.916;2.926;2024-03-17T07:58:23;11.43;;;6.70;;
46318;SDS011;32042;50.916;2.926;2024-03-17T08:00:50;10.37;;;6.00;;
46318;SDS011;32042;50.916;2.926;2024-03-17T08:03:17;7.40;;;6.37;;
46318;SDS011;32042;50.916;2.926;2024-03-17T08:05:47;9.43;;;6.93;;
46318;SDS011;32042;50.916;2.926;2024-03-17T08:08:15;9.43;;;6.40;;
46318;SDS011;32042;50.916;2.926;2024-03-17T08:10:42;8.00;;;5.83;;
46318;SDS011;32042;50.916;2.926;2024-03-17T08:13:08;8.57;;;6.07;;
46318;SDS011;32042;50.916;2.926;2024-03-17T08:15:34;9.17;;;5.73;;
46318;SDS011;32042;50.916;2.926;2024-03-17T08:18:00;10.73;;;6.47;;
46318;SDS011;32042;50.916;2.926;2024-03-17T08:20:27;11.23;;;6.37;;
46318;SDS011;32042;50.916;2.926;2024-03-17T08:22:53;11.47;;;6.17;;
46318;SDS011;32042;50.916;2.926;2024-03-17T08:25:19;6.73;;;4.87;;
46318;SDS011;32042;50.916;2.926;2024-03-17T08:27:45;12.13;;;5.83;;
46318;SDS011;32042;50.916;2.926;2024-03-17T08:30:12;6.97;;;5.50;;
46318;SDS011;32042;50.916;2.926;2024-03-17T08:32:38;9.37;;;6.37;;
46318;SDS011;32042;50.916;2.926;2024-03-17T08:35:04;8.37;;;5.30;;
46318;SDS011;32042;50.916;2.926;2024-03-17T08:37:31;8.37;;;6.10;;
46318;SDS011;32042;50.916;2.926;2024-03-17T08:39:57;8.27;;;5.60;;
46318;SDS011;32042;50.916;2.926;2024-03-17T08:42:23;8.73;;;5.60;;
46318;SDS011;32042;50.916;2.926;2024-03-17T08:44:49;10.00;;;5.87;;
46318;SDS011;32042;50.916;2.926;2024-03-17T08:47:15;11.67;;;6.47;;
46318;SDS011;32042;50.916;2.926;2024-03-17T08:49:41;8.07;;;5.57;;
46318;SDS011;32042;50.916;2.926;2024-03-17T08:52:08;8.80;;;6.27;;
46318;SDS011;32042;50.916;2.926;2024-03-17T08:54:34;6.73;;;5.60;;
46318;SDS011;32042;50.916;2.926;2024-03-17T08:57:00;12.93;;;6.20;;
46318;SDS011;32042;50.916;2.926;2024-03-17T08:59:27;6.90;;;5.63;;
46318;SDS011;32042;50.916;2.926;2024-03-17T09:01:53;8.17;;;5.87;;
46318;SDS011;32042;50.916;2.926;2024-03-17T09:04:19;13.00;;;7.40;;
46318;SDS011;32042;50.916;2.926;2024-03-17T09:06:46;8.27;;;6.03;;
46318;SDS011;32042;50.916;2.926;2024-03-17T09:09:12;10.20;;;6.20;;
46318;SDS011;32042;50.916;2.926;2024-03-17T09:11:39;8.80;;;6.50;;
46318;SDS011;32042;50.916;2.926;2024-03-17T09:14:05;7.60;;;6.03;;
46318;SDS011;32042;50.916;2.926;2024-03-17T09:16:31;12.10;;;6.37;;
46318;SDS011;32042;50.916;2.926;2024-03-17T09:18:58;10.00;;;6.47;;
46318;SDS011;32042;50.916;2.926;2024-03-17T09:21:24;9.73;;;6.67;;
46318;SDS011;32042;50.916;2.926;2024-03-17T09:23:50;10.40;;;6.40;;
46318;SDS011;32042;50.916;2.926;2024-03-17T09:26:16;11.00;;;6.63;;
46318;SDS011;32042;50.916;2.926;2024-03-17T09:28:42;9.63;;;7.40;;
46318;SDS011;32042;50.916;2.926;2024-03-17T09:31:09;10.00;;;9.00;;
46318;SDS011;32042;50.916;2.926;2024-03-17T09:33:36;11.33;;;8.00;;
46318;SDS011;32042;50.916;2.926;2024-03-17T09:36:04;9.87;;;7.83;;
46318;SDS011;32042;50.916;2.926;2024-03-17T09:38:33;9.43;;;7.57;;
46318;SDS011;32042;50.916;2.926;2024-03-17T09:41:01;10.00;;;6.63;;
46318;SDS011;32042;50.916;2.926;2024-03-17T09:43:28;7.50;;;6.63;;
46318;SDS011;32042;50.916;2.926;2024-03-17T09:45:54;8.83;;;5.77;;
46318;SDS011;32042;50.916;2.926;2024-03-17T09:48:24;9.00;;;6.07;;
46318;SDS011;32042;50.916;2.926;2024-03-17T09:50:57;9.20;;;6.83;;
46318;SDS011;32042;50.916;2.926;2024-03-17T09:53:34;12.67;;;6.43;;
46318;SDS011;32042;50.916;2.926;2024-03-17T09:56:01;8.80;;;5.47;;
46318;SDS011;32042;50.916;2.926;2024-03-17T09:58:29;10.77;;;5.87;;
46318;SDS011;32042;50.916;2.926;2024-03-17T10:00:55;9.67;;;5.80;;
46318;SDS011;32042;50.916;2.926;2024-03-17T10:06:11;7.40;;;5.77;;
46318;SDS011;32042;50.916;2.926;2024-03-17T10:08:42;8.20;;;5.50;;
46318;SDS011;32042;50.916;2.926;2024-03-17T10:11:08;8.43;;;5.20;;
46318;SDS011;32042;50.916;2.926;2024-03-17T10:13:34;6.80;;;5.33;;
46318;SDS011;32042;50.916;2.926;2024-03-17T10:16:00;10.23;;;7.20;;
46318;SDS011;32042;50.916;2.926;2024-03-17T10:18:26;20.03;;;12.60;;
46318;SDS011;32042;50.916;2.926;2024-03-17T10:20:52;12.40;;;6.53;;
46318;SDS011;32042;50.916;2.926;2024-03-17T10:23:22;10.83;;;5.87;;
46318;SDS011;32042;50.916;2.926;2024-03-17T10:25:48;9.20;;;6.30;;
46318;SDS011;32042;50.916;2.926;2024-03-17T10:28:15;9.53;;;5.67;;
46318;SDS011;32042;50.916;2.926;2024-03-17T10:30:42;8.67;;;5.87;;
46318;SDS011;32042;50.916;2.926;2024-03-17T10:33:23;9.33;;;5.60;;
46318;SDS011;32042;50.916;2.926;2024-03-17T10:35:59;8.80;;;5.47;;
46318;SDS011;32042;50.916;2.926;2024-03-17T10:38:26;8.53;;;5.60;;
46318;SDS011;32042;50.916;2.926;2024-03-17T10:40:53;8.13;;;5.33;;
46318;SDS011;32042;50.916;2.926;2024-03-17T10:43:19;9.50;;;5.50;;
46318;SDS011;32042;50.916;2.926;2024-03-17T10:45:53;5.70;;;5.13;;
46318;SDS011;32042;50.916;2.926;2024-03-17T10:48:20;10.63;;;5.67;;
46318;SDS011;32042;50.916;2.926;2024-03-17T10:50:49;7.97;;;4.87;;
46318;SDS011;32042;50.916;2.926;2024-03-17T10:53:19;9.23;;;4.70;;
46318;SDS011;32042;50.916;2.926;2024-03-17T10:55:56;11.47;;;5.07;;
46318;SDS011;32042;50.916;2.926;2024-03-17T11:00:52;8.57;;;4.40;;
46318;SDS011;32042;50.916;2.926;2024-03-17T11:03:18;4.70;;;4.10;;
46318;SDS011;32042;50.916;2.926;2024-03-17T11:05:46;9.07;;;4.00;;
46318;SDS011;32042;50.916;2.926;2024-03-17T11:08:15;7.70;;;4.17;;
46318;SDS011;32042;50.916;2.926;2024-03-17T11:10:48;12.50;;;5.23;;
46318;SDS011;32042;50.916;2.926;2024-03-17T11:13:22;5.87;;;3.57;;
46318;SDS011;32042;50.916;2.926;2024-03-17T11:15:49;5.33;;;3.47;;
46318;SDS011;32042;50.916;2.926;2024-03-17T11:23:35;6.23;;;2.90;;
46318;SDS011;32042;50.916;2.926;2024-03-17T11:26:05;7.77;;;3.50;;
46318;SDS011;32042;50.916;2.926;2024-03-17T11:28:52;6.83;;;4.10;;
46318;SDS011;32042;50.916;2.926;2024-03-17T11:34:06;7.85;;;3.80;;
46318;SDS011;32042;50.916;2.926;2024-03-17T11:36:38;5.97;;;3.03;;
46318;SDS011;32042;50.916;2.926;2024-03-17T11:39:08;6.43;;;3.50;;
46318;SDS011;32042;50.916;2.926;2024-03-17T11:41:49;4.97;;;3.53;;
46318;SDS011;32042;50.916;2.926;2024-03-17T11:46:45;5.10;;;2.97;;
46318;SDS011;32042;50.916;2.926;2024-03-17T11:49:16;9.75;;;3.33;;
46318;SDS011;32042;50.916;2.926;2024-03-17T11:51:44;5.75;;;3.08;;
46318;SDS011;32042;50.916;2.926;2024-03-17T11:54:13;5.43;;;3.28;;
46318;SDS011;32042;50.916;2.926;2024-03-17T11:56:42;6.33;;;2.97;;
46318;SDS011;32042;50.916;2.926;2024-03-17T11:59:08;7.88;;;3.15;;
46318;SDS011;32042;50.916;2.926;2024-03-17T12:01:35;6.70;;;2.87;;
46318;SDS011;32042;50.916;2.926;2024-03-17T12:04:03;7.85;;;3.08;;
46318;SDS011;32042;50.916;2.926;2024-03-17T12:06:31;7.35;;;2.72;;
46318;SDS011;32042;50.916;2.926;2024-03-17T12:12:04;5.75;;;2.70;;
46318;SDS011;32042;50.916;2.926;2024-03-17T12:14:35;7.43;;;2.90;;
46318;SDS011;32042;50.916;2.926;2024-03-17T12:17:04;6.15;;;3.75;;
46318;SDS011;32042;50.916;2.926;2024-03-17T12:19:32;7.30;;;3.20;;
46318;SDS011;32042;50.916;2.926;2024-03-17T12:21:58;4.97;;;2.75;;
46318;SDS011;32042;50.916;2.926;2024-03-17T12:24:26;4.80;;;3.20;;
46318;SDS011;32042;50.916;2.926;2024-03-17T12:26:53;4.13;;;3.13;;
46318;SDS011;32042;50.916;2.926;2024-03-17T12:29:31;6.60;;;2.93;;
46318;SDS011;32042;50.916;2.926;2024-03-17T12:32:01;6.20;;;3.00;;
46318;SDS011;32042;50.916;2.926;2024-03-17T12:34:28;6.07;;;3.08;;
46318;SDS011;32042;50.916;2.926;2024-03-17T12:36:55;5.07;;;2.37;;
46318;SDS011;32042;50.916;2.926;2024-03-17T12:39:23;4.75;;;2.88;;
46318;SDS011;32042;50.916;2.926;2024-03-17T12:42:03;5.03;;;2.83;;
46318;SDS011;32042;50.916;2.926;2024-03-17T12:44:31;7.95;;;3.60;;
46318;SDS011;32042;50.916;2.926;2024-03-17T12:46:58;3.92;;;2.90;;
46318;SDS011;32042;50.916;2.926;2024-03-17T12:49:27;7.47;;;3.07;;
46318;SDS011;32042;50.916;2.926;2024-03-17T12:51:54;7.43;;;3.57;;
46318;SDS011;32042;50.916;2.926;2024-03-17T12:54:21;3.60;;;2.93;;
46318;SDS011;32042;50.916;2.926;2024-03-17T12:56:48;5.60;;;3.33;;
46318;SDS011;32042;50.916;2.926;2024-03-17T12:59:36;3.90;;;2.87;;
46318;SDS011;32042;50.916;2.926;2024-03-17T13:02:21;5.33;;;2.93;;
46318;SDS011;32042;50.916;2.926;2024-03-17T13:07:32;4.07;;;2.47;;
46318;SDS011;32042;50.916;2.926;2024-03-17T13:09:59;4.07;;;2.73;;
46318;SDS011;32042;50.916;2.926;2024-03-17T13:12:25;4.80;;;2.73;;
46318;SDS011;32042;50.916;2.926;2024-03-17T13:14:52;5.10;;;2.47;;
46318;SDS011;32042;50.916;2.926;2024-03-17T13:17:18;6.77;;;2.87;;
46318;SDS011;32042;50.916;2.926;2024-03-17T13:19:47;6.13;;;2.88;;
46318;SDS011;32042;50.916;2.926;2024-03-17T13:22:13;3.60;;;2.23;;
46318;SDS011;32042;50.916;2.926;2024-03-17T13:24:39;5.28;;;2.10;;
46318;SDS011;32042;50.916;2.926;2024-03-17T13:27:05;6.47;;;2.70;;
46318;SDS011;32042;50.916;2.926;2024-03-17T13:29:33;5.80;;;2.33;;
46318;SDS011;32042;50.916;2.926;2024-03-17T13:32:03;4.30;;;2.70;;
46318;SDS011;32042;50.916;2.926;2024-03-17T13:34:29;5.90;;;2.70;;
46318;SDS011;32042;50.916;2.926;2024-03-17T13:36:55;7.13;;;2.95;;
46318;SDS011;32042;50.916;2.926;2024-03-17T13:39:22;4.73;;;2.57;;
46318;SDS011;32042;50.916;2.926;2024-03-17T13:41:49;3.42;;;2.40;;
46318;SDS011;32042;50.916;2.926;2024-03-17T13:44:18;5.05;;;2.33;;
46318;SDS011;32042;50.916;2.926;2024-03-17T13:46:44;6.73;;;2.57;;
46318;SDS011;32042;50.916;2.926;2024-03-17T13:49:10;5.80;;;2.67;;
46318;SDS011;32042;50.916;2.926;2024-03-17T13:51:36;4.82;;;3.33;;
46318;SDS011;32042;50.916;2.926;2024-03-17T13:54:02;5.50;;;4.10;;
46318;SDS011;32042;50.916;2.926;2024-03-17T13:56:28;6.13;;;3.90;;
46318;SDS011;32042;50.916;2.926;2024-03-17T13:58:54;5.85;;;3.28;;
46318;SDS011;32042;50.916;2.926;2024-03-17T14:01:21;3.80;;;2.90;;
46318;SDS011;32042;50.916;2.926;2024-03-17T14:03:47;4.13;;;2.38;;
46318;SDS011;32042;50.916;2.926;2024-03-17T14:06:13;3.00;;;2.50;;
46318;SDS011;32042;50.916;2.926;2024-03-17T14:08:39;6.97;;;2.67;;
46318;SDS011;32042;50.916;2.926;2024-03-17T14:11:05;5.60;;;3.17;;
46318;SDS011;32042;50.916;2.926;2024-03-17T14:13:31;4.17;;;3.13;;
46318;SDS011;32042;50.916;2.926;2024-03-17T14:15:57;3.30;;;3.00;;
46318;SDS011;32042;50.916;2.926;2024-03-17T14:18:24;4.33;;;3.20;;
46318;SDS011;32042;50.916;2.926;2024-03-17T14:20:50;5.43;;;2.83;;
46318;SDS011;32042;50.916;2.926;2024-03-17T14:23:16;5.67;;;2.77;;
46318;SDS011;32042;50.916;2.926;2024-03-17T14:25:42;5.63;;;3.30;;
46318;SDS011;32042;50.916;2.926;2024-03-17T14:28:08;6.03;;;3.57;;
46318;SDS011;32042;50.916;2.926;2024-03-17T14:30:34;5.80;;;3.08;;
46318;SDS011;32042;50.916;2.926;2024-03-17T14:33:01;4.50;;;3.27;;
46318;SDS011;32042;50.916;2.926;2024-03-17T14:35:29;6.63;;;3.10;;
46318;SDS011;32042;50.916;2.926;2024-03-17T14:37:55;3.77;;;3.00;;
46318;SDS011;32042;50.916;2.926;2024-03-17T14:40:23;3.27;;;2.97;;
46318;SDS011;32042;50.916;2.926;2024-03-17T14:42:50;5.65;;;2.80;;
46318;SDS011;32042;50.916;2.926;2024-03-17T14:45:17;5.60;;;2.77;;
46318;SDS011;32042;50.916;2.926;2024-03-17T14:47:43;4.70;;;3.20;;
46318;SDS011;32042;50.916;2.926;2024-03-17T14:50:09;2.95;;;2.55;;
46318;SDS011;32042;50.916;2.926;2024-03-17T14:52:39;4.07;;;3.53;;
46318;SDS011;32042;50.916;2.926;2024-03-17T14:55:11;3.53;;;2.87;;
46318;SDS011;32042;50.916;2.926;2024-03-17T14:57:37;4.67;;;2.90;;
46318;SDS011;32042;50.916;2.926;2024-03-17T15:00:07;3.05;;;2.15;;
46318;SDS011;32042;50.916;2.926;2024-03-17T15:02:45;7.00;;;2.30;;
46318;SDS011;32042;50.916;2.926;2024-03-17T15:05:12;5.33;;;2.50;;
46318;SDS011;32042;50.916;2.926;2024-03-17T15:07:44;4.53;;;2.50;;
46318;SDS011;32042;50.916;2.926;2024-03-17T15:10:10;3.80;;;2.20;;